createdAt,value
2019-04-16T00:00:05.672Z,73.74
2019-04-16T00:01:05.655Z,74.36
2019-04-16T00:02:05.646Z,74.67
2019-04-16T00:03:05.762Z,74.40
2019-04-16T00:04:05.755Z,74.29
2019-04-16T00:05:05.867Z,74.71
2019-04-16T00:06:05.760Z,74.19
2019-04-16T00:07:05.598Z,74.29
2019-04-16T00:08:10.042Z,74.50
2019-04-16T00:09:06.567Z,75.02
2019-04-16T00:10:05.558Z,74.60
2019-04-16T00:11:05.560Z,74.81
2019-04-16T00:12:14.113Z,74.50
2019-04-16T00:13:05.590Z,75.02
2019-04-16T00:14:05.517Z,75.02
2019-04-16T00:15:05.500Z,74.95
2019-04-16T00:16:05.511Z,75.15
2019-04-16T00:17:05.477Z,74.74
2019-04-16T00:18:05.470Z,75.05
2019-04-16T00:19:06.515Z,76.40
2019-04-16T00:20:06.783Z,76.19
2019-04-16T00:21:06.443Z,75.78
2019-04-16T00:22:05.513Z,76.09
2019-04-16T00:23:05.423Z,75.81
2019-04-16T00:24:05.430Z,76.19
2019-04-16T00:25:05.391Z,76.29
2019-04-16T00:26:05.381Z,76.09
2019-04-16T00:27:05.421Z,76.19
2019-04-16T00:28:05.378Z,76.02
2019-04-16T00:29:05.344Z,75.88
2019-04-16T00:30:05.780Z,76.12
2019-04-16T00:31:05.853Z,76.54
2019-04-16T00:32:09.083Z,76.54
2019-04-16T00:33:07.520Z,75.98
2019-04-16T00:34:06.288Z,76.12
2019-04-16T00:35:05.276Z,76.23
2019-04-16T00:36:05.326Z,76.54
2019-04-16T00:37:05.465Z,76.12
2019-04-16T00:38:05.244Z,76.12
2019-04-16T00:39:05.256Z,75.71
2019-04-16T00:40:05.241Z,76.12
2019-04-16T00:41:05.225Z,76.33
2019-04-16T00:42:05.224Z,76.33
2019-04-16T00:43:05.223Z,76.95
2019-04-16T00:44:05.190Z,76.43
2019-04-16T00:45:05.178Z,76.78
2019-04-16T00:46:05.160Z,76.57
2019-04-16T00:47:05.176Z,76.78
2019-04-16T00:48:05.149Z,77.16
2019-04-16T00:49:05.123Z,77.20
2019-04-16T00:50:05.113Z,77.40
2019-04-16T00:51:05.136Z,77.61
2019-04-16T00:52:06.672Z,78.23
2019-04-16T00:53:07.620Z,77.72
2019-04-16T00:54:09.875Z,77.40
2019-04-16T00:55:06.071Z,78.34
2019-04-16T00:56:05.227Z,78.23
2019-04-16T00:57:05.053Z,78.27
2019-04-16T00:58:05.029Z,78.55
2019-04-16T00:59:05.059Z,78.48
2019-04-16T01:00:05.022Z,78.58
2019-04-16T01:01:04.991Z,78.58
2019-04-16T01:02:04.987Z,78.79
2019-04-16T01:03:05.031Z,78.69
2019-04-16T01:04:05.504Z,78.27
2019-04-16T01:05:04.951Z,78.79
2019-04-16T01:06:07.941Z,78.69
2019-04-16T01:07:04.933Z,78.89
2019-04-16T01:08:04.916Z,79.10
2019-04-16T01:09:04.903Z,79.03
2019-04-16T01:10:04.951Z,79.24
2019-04-16T01:11:04.892Z,79.24
2019-04-16T01:12:05.042Z,78.58
2019-04-16T01:13:04.887Z,79.24
2019-04-16T01:14:04.946Z,79.31
2019-04-16T01:15:04.949Z,79.24
2019-04-16T01:16:04.981Z,79.14
2019-04-16T01:17:05.291Z,79.45
2019-04-16T01:18:07.835Z,79.35
2019-04-16T01:19:09.483Z,79.55
2019-04-16T01:20:05.797Z,79.49
2019-04-16T01:21:04.787Z,79.76
2019-04-16T01:22:04.758Z,79.91
2019-04-16T01:23:04.771Z,79.80
2019-04-16T01:24:04.736Z,80.08
2019-04-16T01:25:04.753Z,79.45
2019-04-16T01:26:04.736Z,79.69
2019-04-16T01:27:04.700Z,80.43
2019-04-16T01:28:04.699Z,79.91
2019-04-16T01:29:04.699Z,79.91
2019-04-16T01:30:05.937Z,79.59
2019-04-16T01:31:08.129Z,79.69
2019-04-16T01:32:07.276Z,80.22
2019-04-16T01:33:05.631Z,80.11
2019-04-16T01:34:04.668Z,80.22
2019-04-16T01:35:04.634Z,80.53
2019-04-16T01:36:04.623Z,81.05
2019-04-16T01:37:04.628Z,80.32
2019-04-16T01:38:04.580Z,80.53
2019-04-16T01:39:15.982Z,80.63
2019-04-16T01:40:05.566Z,81.09
2019-04-16T01:41:04.550Z,80.94
2019-04-16T01:42:04.534Z,80.88
2019-04-16T01:43:04.551Z,81.19
2019-04-16T01:44:04.525Z,81.19
2019-04-16T01:45:04.522Z,81.60
2019-04-16T01:46:04.494Z,81.19
2019-04-16T01:47:05.292Z,81.60
2019-04-16T01:48:08.053Z,81.40
2019-04-16T01:49:04.484Z,81.29
2019-04-16T01:50:04.451Z,81.40
2019-04-16T01:51:04.451Z,81.50
2019-04-16T01:52:04.480Z,81.19
2019-04-16T01:53:04.550Z,81.09
2019-04-16T01:54:04.585Z,81.81
2019-04-16T01:55:04.390Z,81.81
2019-04-16T01:56:04.380Z,81.96
2019-04-16T01:57:04.373Z,81.71
2019-04-16T01:58:04.367Z,81.81
2019-04-16T01:59:05.760Z,81.85
2019-04-16T02:00:07.087Z,81.96
2019-04-16T02:01:04.367Z,82.54
2019-04-16T02:02:04.325Z,82.48
2019-04-16T02:03:04.298Z,81.85
2019-04-16T02:04:04.346Z,82.79
2019-04-16T02:05:04.293Z,82.48
2019-04-16T02:06:04.272Z,81.96
2019-04-16T02:07:04.274Z,81.85
2019-04-16T02:08:04.298Z,82.17
2019-04-16T02:09:04.252Z,83.00
2019-04-16T02:10:07.527Z,82.17
2019-04-16T02:11:04.223Z,82.37
2019-04-16T02:12:04.213Z,83.00
2019-04-16T02:13:04.188Z,82.93
2019-04-16T02:14:04.187Z,83.04
2019-04-16T02:15:04.173Z,83.45
2019-04-16T02:16:04.184Z,83.66
2019-04-16T02:17:04.158Z,83.14
2019-04-16T02:18:04.182Z,83.14
2019-04-16T02:19:04.125Z,83.52
2019-04-16T02:20:06.081Z,83.35
2019-04-16T02:21:04.110Z,83.87
2019-04-16T02:22:04.116Z,83.76
2019-04-16T02:23:04.081Z,83.25
2019-04-16T02:24:04.092Z,83.35
2019-04-16T02:25:04.086Z,84.43
2019-04-16T02:26:04.122Z,83.91
2019-04-16T02:27:04.220Z,84.12
2019-04-16T02:28:04.229Z,84.01
2019-04-16T02:29:04.020Z,84.64
2019-04-16T02:30:05.152Z,84.47
2019-04-16T02:31:04.007Z,84.36
2019-04-16T02:32:03.990Z,84.88
2019-04-16T02:33:04.006Z,84.99
2019-04-16T02:34:03.985Z,85.93
2019-04-16T02:35:03.950Z,85.20
2019-04-16T02:36:03.939Z,85.72
2019-04-16T02:37:03.948Z,85.34
2019-04-16T02:38:11.062Z,85.20
2019-04-16T02:39:04.937Z,85.97
2019-04-16T02:40:03.893Z,85.24
2019-04-16T02:41:03.890Z,85.86
2019-04-16T02:42:03.873Z,86.07
2019-04-16T02:43:06.196Z,86.69
2019-04-16T02:44:03.898Z,86.69
2019-04-16T02:45:03.866Z,86.80
2019-04-16T02:46:03.853Z,86.18
2019-04-16T02:47:06.095Z,86.80
2019-04-16T02:48:03.814Z,86.07
2019-04-16T02:49:04.071Z,86.38
2019-04-16T02:50:03.822Z,85.97
2019-04-16T02:51:06.890Z,86.00
2019-04-16T02:52:03.784Z,86.84
2019-04-16T02:53:03.752Z,87.05
2019-04-16T02:54:03.777Z,87.15
2019-04-16T02:55:08.755Z,87.05
2019-04-16T02:56:04.740Z,87.68
2019-04-16T02:57:03.725Z,88.13
2019-04-16T02:58:03.696Z,88.45
2019-04-16T02:59:09.664Z,88.65
2019-04-16T03:00:04.722Z,88.55
2019-04-16T03:01:03.678Z,88.65
2019-04-16T03:02:03.647Z,88.49
2019-04-16T03:03:03.645Z,88.39
2019-04-16T03:04:03.623Z,88.90
2019-04-16T03:05:03.663Z,88.84
2019-04-16T03:06:03.627Z,89.22
2019-04-16T03:07:04.328Z,89.95
2019-04-16T03:08:04.601Z,89.78
2019-04-16T03:09:05.378Z,90.31
2019-04-16T03:10:04.558Z,89.68
2019-04-16T03:11:03.558Z,89.68
2019-04-16T03:12:03.588Z,89.89
2019-04-16T03:13:03.565Z,89.78
2019-04-16T03:14:03.519Z,89.72
2019-04-16T03:15:03.516Z,90.20
2019-04-16T03:16:06.247Z,90.03
2019-04-16T03:17:03.490Z,90.39
2019-04-16T03:18:03.500Z,91.22
2019-04-16T03:19:03.491Z,91.50
2019-04-16T03:20:03.645Z,91.75
2019-04-16T03:21:03.436Z,91.33
2019-04-16T03:22:03.792Z,91.54
2019-04-16T03:23:06.095Z,92.27
2019-04-16T03:24:08.063Z,92.38
2019-04-16T03:25:04.391Z,92.90
2019-04-16T03:26:03.393Z,93.21
2019-04-16T03:27:05.240Z,92.58
2019-04-16T03:28:03.391Z,93.01
2019-04-16T03:29:03.361Z,93.11
2019-04-16T03:30:06.031Z,93.04
2019-04-16T03:31:08.126Z,93.15
2019-04-16T03:32:04.804Z,93.11
2019-04-16T03:33:10.199Z,92.69
2019-04-16T03:34:04.701Z,92.79
2019-04-16T03:35:03.285Z,93.15
2019-04-16T03:36:03.423Z,92.83
2019-04-16T03:37:03.710Z,92.67
2019-04-16T03:38:05.347Z,93.15
2019-04-16T03:39:03.596Z,93.19
2019-04-16T03:40:15.304Z,93.40
2019-04-16T03:41:04.222Z,92.77
2019-04-16T03:42:03.236Z,93.51
2019-04-16T03:43:04.500Z,93.93
2019-04-16T03:44:04.114Z,94.34
2019-04-16T03:45:08.003Z,94.24
2019-04-16T03:46:04.162Z,93.78
2019-04-16T03:47:03.154Z,93.46
2019-04-16T03:48:03.143Z,94.03
2019-04-16T03:49:03.155Z,93.51
2019-04-16T03:50:03.150Z,93.71
2019-04-16T03:51:03.672Z,93.71
2019-04-16T03:52:04.938Z,93.82
2019-04-16T03:53:04.092Z,94.20
2019-04-16T03:54:04.845Z,94.51
2019-04-16T03:55:03.110Z,94.97
2019-04-16T03:56:03.095Z,94.09
2019-04-16T03:57:03.066Z,94.56
2019-04-16T03:58:06.099Z,94.97
2019-04-16T03:59:03.021Z,94.76
2019-04-16T04:00:03.063Z,94.45
2019-04-16T04:01:02.996Z,94.45
2019-04-16T04:02:02.989Z,94.66
2019-04-16T04:03:02.979Z,94.76
2019-04-16T04:04:03.001Z,95.14
2019-04-16T04:05:06.349Z,94.93
2019-04-16T04:06:03.585Z,94.62
2019-04-16T04:07:02.937Z,94.82
2019-04-16T04:08:02.978Z,94.57
2019-04-16T04:09:02.908Z,94.51
2019-04-16T04:10:02.909Z,94.57
2019-04-16T04:11:02.990Z,94.68
2019-04-16T04:12:02.914Z,94.05
2019-04-16T04:13:04.872Z,94.36
2019-04-16T04:14:02.859Z,94.36
2019-04-16T04:15:02.844Z,94.05
2019-04-16T04:16:02.837Z,94.74
2019-04-16T04:17:06.699Z,93.63
2019-04-16T04:18:02.832Z,93.59
2019-04-16T04:19:02.805Z,93.38
2019-04-16T04:20:02.787Z,93.80
2019-04-16T04:21:02.784Z,93.07
2019-04-16T04:22:02.777Z,93.13
2019-04-16T04:23:02.783Z,92.08
2019-04-16T04:24:02.750Z,92.19
2019-04-16T04:25:04.357Z,91.98
2019-04-16T04:26:05.554Z,91.66
2019-04-16T04:27:03.730Z,91.98
2019-04-16T04:28:02.701Z,91.87
2019-04-16T04:29:05.969Z,91.87
2019-04-16T04:30:02.694Z,92.08
2019-04-16T04:31:02.673Z,91.77
2019-04-16T04:32:03.384Z,91.87
2019-04-16T04:33:07.423Z,91.87
2019-04-16T04:34:03.671Z,91.87
2019-04-16T04:35:02.621Z,92.50
2019-04-16T04:36:02.634Z,92.19
2019-04-16T04:37:02.614Z,91.46
2019-04-16T04:38:04.197Z,91.41
2019-04-16T04:39:02.577Z,92.25
2019-04-16T04:40:02.613Z,91.35
2019-04-16T04:41:02.563Z,91.00
2019-04-16T04:42:02.547Z,91.66
2019-04-16T04:43:02.569Z,92.08
2019-04-16T04:44:04.290Z,91.56
2019-04-16T04:45:02.537Z,91.46
2019-04-16T04:46:02.499Z,91.14
2019-04-16T04:47:02.489Z,91.25
2019-04-16T04:48:02.504Z,91.14
2019-04-16T04:49:02.510Z,91.14
2019-04-16T04:50:03.525Z,91.03
2019-04-16T04:51:07.000Z,91.62
2019-04-16T04:52:03.439Z,91.66
2019-04-16T04:53:02.458Z,91.41
2019-04-16T04:54:02.438Z,91.25
2019-04-16T04:55:02.401Z,91.35
2019-04-16T04:56:02.446Z,91.41
2019-04-16T04:57:02.388Z,90.53
2019-04-16T04:58:03.327Z,90.33
2019-04-16T04:59:04.977Z,89.81
2019-04-16T05:00:02.368Z,89.07
2019-04-16T05:01:02.339Z,89.34
2019-04-16T05:02:02.336Z,88.62
2019-04-16T05:03:02.339Z,88.41
2019-04-16T05:04:02.390Z,88.62
2019-04-16T05:05:02.397Z,89.03
2019-04-16T05:06:02.315Z,88.30
2019-04-16T05:07:04.781Z,88.30
2019-04-16T05:08:02.260Z,87.95
2019-04-16T05:09:02.255Z,88.26
2019-04-16T05:10:04.594Z,88.47
2019-04-16T05:11:03.290Z,88.47
2019-04-16T05:12:02.220Z,87.95
2019-04-16T05:13:02.219Z,87.95
2019-04-16T05:14:02.203Z,87.60
2019-04-16T05:15:03.881Z,87.63
2019-04-16T05:16:02.799Z,86.87
2019-04-16T05:17:03.532Z,86.97
2019-04-16T05:18:02.147Z,86.27
2019-04-16T05:19:02.137Z,83.96
2019-04-16T05:20:02.173Z,81.15
2019-04-16T05:21:02.129Z,78.13
2019-04-16T05:22:02.109Z,75.57
2019-04-16T05:23:02.095Z,74.05
2019-04-16T05:24:02.083Z,72.36
2019-04-16T05:25:02.513Z,71.50
2019-04-16T05:26:04.546Z,70.22
2019-04-16T05:27:02.054Z,69.78
2019-04-16T05:28:02.052Z,69.12
2019-04-16T05:29:02.032Z,68.51
2019-04-16T05:30:02.063Z,67.03
2019-04-16T05:31:02.016Z,66.89
2019-04-16T05:32:02.016Z,66.86
2019-04-16T05:33:05.095Z,66.24
2019-04-16T05:34:02.425Z,65.28
2019-04-16T05:35:01.977Z,64.36
2019-04-16T05:36:01.963Z,64.12
2019-04-16T05:37:01.977Z,63.17
2019-04-16T05:38:01.930Z,62.54
2019-04-16T05:39:03.703Z,63.06
2019-04-16T05:40:01.926Z,63.47
2019-04-16T05:41:12.529Z,63.42
2019-04-16T05:42:02.934Z,61.53
2019-04-16T05:43:01.881Z,61.19
2019-04-16T05:44:02.128Z,60.86
2019-04-16T05:45:02.501Z,59.39
2019-04-16T05:46:01.840Z,58.85
2019-04-16T05:47:01.855Z,58.03
2019-04-16T05:48:01.846Z,58.31
2019-04-16T05:49:01.800Z,57.82
2019-04-16T05:50:01.812Z,57.75
2019-04-16T05:51:01.790Z,58.78
2019-04-16T05:52:03.794Z,58.26
2019-04-16T05:53:01.776Z,58.16
2019-04-16T05:54:01.750Z,58.13
2019-04-16T05:55:01.767Z,57.72
2019-04-16T05:56:01.738Z,57.72
2019-04-16T05:57:01.716Z,57.62
2019-04-16T05:58:01.726Z,58.31
2019-04-16T05:59:02.705Z,57.18
2019-04-16T06:00:04.713Z,56.95
2019-04-16T06:01:02.670Z,56.77
2019-04-16T06:02:01.665Z,56.85
2019-04-16T06:03:01.678Z,56.30
2019-04-16T06:04:01.672Z,56.85
2019-04-16T06:05:01.637Z,55.41
2019-04-16T06:06:01.644Z,56.54
2019-04-16T06:07:04.958Z,55.38
2019-04-16T06:08:02.717Z,56.74
2019-04-16T06:09:01.589Z,55.59
2019-04-16T06:10:01.590Z,55.05
2019-04-16T06:11:01.562Z,55.26
2019-04-16T06:12:01.545Z,55.64
2019-04-16T06:13:01.533Z,53.64
2019-04-16T06:14:01.543Z,53.16
2019-04-16T06:15:01.521Z,53.64
2019-04-16T06:16:01.520Z,53.03
2019-04-16T06:17:01.489Z,53.23
2019-04-16T06:18:02.488Z,53.33
2019-04-16T06:19:01.478Z,53.33
2019-04-16T06:20:01.453Z,52.80
2019-04-16T06:21:01.440Z,53.13
2019-04-16T06:22:01.467Z,53.52
2019-04-16T06:23:01.590Z,51.70
2019-04-16T06:24:03.518Z,52.85
2019-04-16T06:25:08.521Z,53.41
2019-04-16T06:26:02.383Z,52.08
2019-04-16T06:27:01.389Z,53.69
2019-04-16T06:28:01.400Z,54.16
2019-04-16T06:29:01.356Z,51.98
2019-04-16T06:30:02.330Z,52.67
2019-04-16T06:31:04.999Z,51.83
2019-04-16T06:32:01.341Z,52.22
2019-04-16T06:33:01.307Z,50.63
2019-04-16T06:34:01.299Z,49.30
2019-04-16T06:35:01.288Z,49.59
2019-04-16T06:36:01.312Z,49.41
2019-04-16T06:37:01.278Z,49.82
2019-04-16T06:38:01.274Z,50.07
2019-04-16T06:39:01.265Z,50.15
2019-04-16T06:40:01.848Z,50.04
2019-04-16T06:41:03.380Z,50.35
2019-04-16T06:42:01.241Z,49.51
2019-04-16T06:43:02.804Z,49.62
2019-04-16T06:44:03.882Z,49.49
2019-04-16T06:45:01.707Z,48.82
2019-04-16T06:46:01.220Z,50.07
2019-04-16T06:47:01.162Z,50.73
2019-04-16T06:48:01.144Z,51.34
2019-04-16T06:49:01.125Z,50.58
2019-04-16T06:50:01.175Z,50.37
2019-04-16T06:51:01.144Z,50.45
2019-04-16T06:52:01.115Z,50.45
2019-04-16T06:53:01.082Z,50.04
2019-04-16T06:54:01.135Z,49.84
2019-04-16T06:55:03.694Z,49.59
2019-04-16T06:56:01.069Z,49.33
2019-04-16T06:57:01.040Z,49.89
2019-04-16T06:58:01.025Z,50.67
2019-04-16T06:59:01.046Z,51.47
2019-04-16T07:00:02.379Z,52.03
2019-04-16T07:01:05.860Z,52.75
2019-04-16T07:02:01.975Z,52.16
2019-04-16T07:03:02.430Z,50.75
2019-04-16T07:04:00.966Z,51.37
2019-04-16T07:05:01.973Z,51.67
2019-04-16T07:06:03.678Z,51.78
2019-04-16T07:07:00.922Z,50.78
2019-04-16T07:08:00.913Z,48.90
2019-04-16T07:09:01.382Z,48.16
2019-04-16T07:10:00.904Z,47.32
2019-04-16T07:11:00.883Z,47.24
2019-04-16T07:12:00.871Z,47.32
2019-04-16T07:13:00.873Z,47.00
2019-04-16T07:14:00.846Z,46.89
2019-04-16T07:15:00.871Z,47.09
2019-04-16T07:16:00.830Z,46.36
2019-04-16T07:17:00.895Z,46.26
2019-04-16T07:18:02.551Z,45.95
2019-04-16T07:19:00.824Z,46.83
2019-04-16T07:20:04.329Z,46.92
2019-04-16T07:21:00.761Z,46.63
2019-04-16T07:22:00.755Z,47.50
2019-04-16T07:23:00.750Z,46.69
2019-04-16T07:24:00.890Z,47.61
2019-04-16T07:25:04.163Z,46.75
2019-04-16T07:26:03.396Z,46.55
2019-04-16T07:27:00.886Z,45.71
2019-04-16T07:28:00.691Z,46.50
2019-04-16T07:29:00.707Z,46.70
2019-04-16T07:30:04.893Z,43.02
2019-04-16T07:31:01.715Z,44.53
2019-04-16T07:32:00.929Z,44.45
2019-04-16T07:33:01.216Z,42.90
2019-04-16T07:34:00.630Z,43.20
2019-04-16T07:35:00.605Z,44.22
2019-04-16T07:36:00.730Z,42.88
2019-04-16T07:37:01.808Z,44.08
2019-04-16T07:38:04.964Z,45.01
2019-04-16T07:39:01.569Z,46.48
2019-04-16T07:40:00.690Z,46.26
2019-04-16T07:41:00.553Z,46.34
2019-04-16T07:42:09.482Z,45.22
2019-04-16T07:43:01.529Z,44.69
2019-04-16T07:44:04.461Z,46.28
2019-04-16T07:45:01.501Z,45.65
2019-04-16T07:46:00.511Z,44.87
2019-04-16T07:47:00.473Z,44.95
2019-04-16T07:48:00.474Z,45.07
2019-04-16T07:49:00.461Z,44.22
2019-04-16T07:50:01.390Z,42.92
2019-04-16T07:51:01.574Z,44.71
2019-04-16T07:52:00.470Z,44.69
2019-04-16T07:53:00.430Z,44.46
2019-04-16T07:54:02.280Z,44.95
2019-04-16T07:55:00.390Z,45.10
2019-04-16T07:56:00.367Z,43.38
2019-04-16T07:57:00.426Z,44.75
2019-04-16T07:58:00.361Z,46.30
2019-04-16T07:59:01.645Z,47.66
2019-04-16T08:00:00.324Z,44.97
2019-04-16T08:01:00.349Z,43.44
2019-04-16T08:02:00.438Z,42.69
2019-04-16T08:03:00.348Z,42.59
2019-04-16T08:04:01.554Z,42.77
2019-04-16T08:05:00.280Z,42.07
2019-04-16T08:06:00.275Z,42.00
2019-04-16T08:07:00.250Z,42.71
2019-04-16T08:08:00.243Z,42.53
2019-04-16T08:09:00.268Z,42.63
2019-04-16T08:10:02.062Z,42.71
2019-04-16T08:11:00.202Z,42.76
2019-04-16T08:12:00.209Z,43.24
2019-04-16T08:13:00.950Z,43.44
2019-04-16T08:14:00.375Z,44.26
2019-04-16T08:15:12.879Z,42.41
2019-04-16T08:16:01.183Z,43.26
2019-04-16T08:17:00.137Z,44.57
2019-04-16T08:18:00.131Z,44.45
2019-04-16T08:19:00.123Z,43.38
2019-04-16T08:20:00.121Z,43.38
2019-04-16T08:21:02.647Z,43.06
2019-04-16T08:22:01.205Z,42.65
2019-04-16T08:23:00.084Z,45.16
2019-04-16T08:24:00.391Z,44.31
2019-04-16T08:25:03.274Z,44.26
2019-04-16T08:26:03.572Z,42.80
2019-04-16T08:27:00.050Z,42.80
2019-04-16T08:28:00.026Z,42.68
2019-04-16T08:29:00.003Z,42.08
2019-04-16T08:30:03.388Z,43.38
2019-04-16T08:31:00.289Z,41.54
2019-04-16T08:31:59.965Z,42.45
2019-04-16T08:32:59.972Z,41.01
2019-04-16T08:33:59.973Z,42.66
2019-04-16T08:34:59.975Z,42.74
2019-04-16T08:35:59.946Z,41.74
2019-04-16T08:36:59.914Z,41.93
2019-04-16T08:37:59.910Z,40.59
2019-04-16T08:38:59.912Z,40.99
2019-04-16T08:39:59.900Z,40.09
2019-04-16T08:40:59.867Z,40.72
2019-04-16T08:41:59.883Z,40.72
2019-04-16T08:42:59.847Z,42.14
2019-04-16T08:44:03.548Z,41.82
2019-04-16T08:44:59.851Z,41.91
2019-04-16T08:45:59.863Z,40.56
2019-04-16T08:46:59.804Z,40.95
2019-04-16T08:47:59.838Z,39.43
2019-04-16T08:48:59.801Z,40.24
2019-04-16T08:49:59.774Z,39.43
2019-04-16T08:50:59.764Z,40.04
2019-04-16T08:51:59.737Z,40.75
2019-04-16T08:52:59.741Z,38.91
2019-04-16T08:53:59.759Z,39.73
2019-04-16T08:54:59.729Z,40.06
2019-04-16T08:55:59.697Z,40.56
2019-04-16T08:56:59.684Z,40.79
2019-04-16T08:57:59.695Z,40.59
2019-04-16T08:59:01.297Z,40.47
2019-04-16T08:59:59.686Z,39.86
2019-04-16T09:00:59.649Z,40.69
2019-04-16T09:01:59.650Z,40.95
2019-04-16T09:02:59.622Z,39.62
2019-04-16T09:04:02.455Z,39.09
2019-04-16T09:04:59.616Z,39.80
2019-04-16T09:05:59.609Z,38.99
2019-04-16T09:07:11.597Z,38.72
2019-04-16T09:08:11.905Z,38.25
2019-04-16T09:09:11.539Z,40.56
2019-04-16T09:10:00.567Z,40.38
2019-04-16T09:11:00.457Z,40.00
2019-04-16T09:11:59.526Z,39.06
2019-04-16T09:13:03.773Z,39.79
2019-04-16T09:14:00.590Z,39.75
2019-04-16T09:14:59.496Z,39.94
2019-04-16T09:15:59.496Z,39.43
2019-04-16T09:16:59.480Z,38.59
2019-04-16T09:17:59.463Z,40.20
2019-04-16T09:18:59.496Z,38.37
2019-04-16T09:20:01.755Z,38.57
2019-04-16T09:21:00.425Z,38.03
2019-04-16T09:21:59.409Z,39.64
2019-04-16T09:22:59.419Z,39.39
2019-04-16T09:24:07.066Z,39.86
2019-04-16T09:25:00.431Z,37.86
2019-04-16T09:26:12.473Z,37.27
2019-04-16T09:27:00.362Z,38.26
2019-04-16T09:28:00.728Z,37.43
2019-04-16T09:29:01.450Z,37.94
2019-04-16T09:30:00.396Z,38.41
2019-04-16T09:30:59.340Z,37.81
2019-04-16T09:31:59.301Z,36.88
2019-04-16T09:33:00.945Z,38.37
2019-04-16T09:33:59.285Z,37.10
2019-04-16T09:35:09.321Z,39.02
2019-04-16T09:36:00.277Z,36.47
2019-04-16T09:36:59.325Z,36.68
2019-04-16T09:37:59.248Z,36.72
2019-04-16T09:38:59.248Z,36.65
2019-04-16T09:39:59.232Z,37.15
2019-04-16T09:40:59.225Z,36.94
2019-04-16T09:41:59.203Z,36.72
2019-04-16T09:42:59.243Z,36.63
2019-04-16T09:43:59.175Z,37.94
2019-04-16T09:45:01.842Z,34.38
2019-04-16T09:46:10.266Z,33.71
2019-04-16T09:47:00.576Z,33.72
2019-04-16T09:48:02.429Z,35.46
2019-04-16T09:48:59.114Z,35.48
2019-04-16T09:49:59.105Z,34.77
2019-04-16T09:50:59.149Z,35.58
2019-04-16T09:51:59.104Z,34.80
2019-04-16T09:53:01.775Z,36.82
2019-04-16T09:53:59.095Z,35.38
2019-04-16T09:54:59.055Z,35.70
2019-04-16T09:55:59.059Z,35.31
2019-04-16T09:56:59.756Z,35.21
2019-04-16T09:57:59.024Z,35.94
2019-04-16T09:58:59.019Z,36.56
2019-04-16T09:59:59.152Z,38.61
2019-04-16T10:00:58.983Z,38.09
2019-04-16T10:01:58.980Z,36.56
2019-04-16T10:02:58.954Z,36.88
2019-04-16T10:03:58.949Z,37.80
2019-04-16T10:04:58.944Z,37.30
2019-04-16T10:05:58.967Z,38.41
2019-04-16T10:06:58.921Z,38.92
2019-04-16T10:07:58.954Z,38.71
2019-04-16T10:08:58.895Z,39.10
2019-04-16T10:09:58.921Z,38.02
2019-04-16T10:11:02.780Z,38.10
2019-04-16T10:11:59.917Z,37.49
2019-04-16T10:12:58.868Z,39.04
2019-04-16T10:13:58.856Z,38.53
2019-04-16T10:14:58.871Z,38.81
2019-04-16T10:15:58.844Z,38.49
2019-04-16T10:16:58.896Z,39.10
2019-04-16T10:18:01.497Z,39.40
2019-04-16T10:18:58.832Z,38.47
2019-04-16T10:19:58.755Z,38.88
2019-04-16T10:20:58.760Z,37.46
2019-04-16T10:21:58.741Z,37.58
2019-04-16T10:22:58.756Z,38.92
2019-04-16T10:23:58.731Z,40.75
2019-04-16T10:24:58.853Z,39.22
2019-04-16T10:25:58.708Z,38.79
2019-04-16T10:26:59.912Z,38.43
2019-04-16T10:27:58.711Z,39.66
2019-04-16T10:28:58.687Z,39.95
2019-04-16T10:29:58.670Z,39.32
2019-04-16T10:30:58.739Z,39.32
2019-04-16T10:31:58.629Z,39.22
2019-04-16T10:32:58.653Z,38.61
2019-04-16T10:33:58.623Z,38.73
2019-04-16T10:34:58.607Z,39.73
2019-04-16T10:36:00.982Z,39.91
2019-04-16T10:36:59.582Z,39.00
2019-04-16T10:37:58.564Z,38.79
2019-04-16T10:38:58.580Z,38.70
2019-04-16T10:39:58.563Z,38.29
2019-04-16T10:40:58.557Z,38.49
2019-04-16T10:41:58.550Z,38.39
2019-04-16T10:42:58.510Z,38.92
2019-04-16T10:43:58.549Z,38.70
2019-04-16T10:44:58.494Z,38.71
2019-04-16T10:45:58.534Z,38.90
2019-04-16T10:46:58.563Z,39.51
2019-04-16T10:47:58.458Z,39.91
2019-04-16T10:48:58.435Z,39.49
2019-04-16T10:49:58.527Z,38.88
2019-04-16T10:50:58.455Z,38.07
2019-04-16T10:51:58.419Z,39.00
2019-04-16T10:52:58.427Z,40.42
2019-04-16T10:53:58.544Z,40.09
2019-04-16T10:54:58.394Z,42.31
2019-04-16T10:55:58.382Z,39.78
2019-04-16T10:56:58.460Z,39.78
2019-04-16T10:57:58.388Z,38.66
2019-04-16T10:58:58.330Z,39.39
2019-04-16T10:59:58.332Z,39.57
2019-04-16T11:00:58.339Z,38.78
2019-04-16T11:01:58.336Z,39.26
2019-04-16T11:02:58.274Z,38.27
2019-04-16T11:03:58.339Z,38.78
2019-04-16T11:04:58.296Z,39.26
2019-04-16T11:05:58.250Z,40.59
2019-04-16T11:06:58.238Z,38.23
2019-04-16T11:07:58.250Z,37.95
2019-04-16T11:08:58.207Z,38.25
2019-04-16T11:09:58.221Z,38.37
2019-04-16T11:10:58.201Z,38.78
2019-04-16T11:11:58.187Z,40.00
2019-04-16T11:13:07.444Z,39.47
2019-04-16T11:14:00.174Z,38.66
2019-04-16T11:14:58.212Z,39.67
2019-04-16T11:15:58.145Z,38.84
2019-04-16T11:16:58.149Z,39.75
2019-04-16T11:17:58.124Z,38.91
2019-04-16T11:18:58.104Z,38.50
2019-04-16T11:20:00.057Z,37.83
2019-04-16T11:20:58.128Z,38.95
2019-04-16T11:21:59.987Z,38.93
2019-04-16T11:22:59.095Z,38.62
2019-04-16T11:23:58.036Z,38.01
2019-04-16T11:24:58.101Z,39.13
2019-04-16T11:25:58.084Z,37.52
2019-04-16T11:26:58.019Z,38.96
2019-04-16T11:27:58.023Z,38.76
2019-04-16T11:28:57.980Z,40.08
2019-04-16T11:29:58.011Z,37.83
2019-04-16T11:30:57.962Z,38.84
2019-04-16T11:31:57.974Z,37.42
2019-04-16T11:32:57.965Z,37.73
2019-04-16T11:33:57.988Z,39.03
2019-04-16T11:34:57.929Z,37.10
2019-04-16T11:35:57.930Z,37.93
2019-04-16T11:36:58.548Z,38.84
2019-04-16T11:37:57.903Z,39.84
2019-04-16T11:38:57.946Z,38.64
2019-04-16T11:39:57.894Z,38.34
2019-04-16T11:40:57.902Z,37.62
2019-04-16T11:41:57.925Z,37.79
2019-04-16T11:42:57.847Z,37.71
2019-04-16T11:43:57.860Z,38.30
2019-04-16T11:44:57.871Z,37.40
2019-04-16T11:45:57.810Z,37.83
2019-04-16T11:46:57.810Z,38.93
2019-04-16T11:47:57.787Z,37.10
2019-04-16T11:48:57.754Z,37.08
2019-04-16T11:49:57.766Z,35.26
2019-04-16T11:50:57.782Z,35.77
2019-04-16T11:52:08.614Z,35.97
2019-04-16T11:52:58.686Z,35.97
2019-04-16T11:53:57.736Z,35.66
2019-04-16T11:55:00.671Z,35.77
2019-04-16T11:55:57.716Z,36.87
2019-04-16T11:56:59.513Z,35.44
2019-04-16T11:57:57.748Z,36.05
2019-04-16T11:58:57.890Z,37.05
2019-04-16T12:00:06.744Z,37.76
2019-04-16T12:00:58.620Z,36.63
2019-04-16T12:01:57.714Z,35.82
2019-04-16T12:02:57.609Z,36.04
2019-04-16T12:03:57.600Z,35.44
2019-04-16T12:04:59.407Z,37.05
2019-04-16T12:05:57.559Z,35.22
2019-04-16T12:06:57.634Z,35.95
2019-04-16T12:07:57.681Z,35.65
2019-04-16T12:08:57.548Z,35.43
2019-04-16T12:09:57.557Z,35.63
2019-04-16T12:10:57.513Z,35.75
2019-04-16T12:11:57.524Z,35.57
2019-04-16T12:12:57.518Z,35.65
2019-04-16T12:13:57.524Z,35.16
2019-04-16T12:14:57.533Z,36.96
2019-04-16T12:15:57.455Z,35.26
2019-04-16T12:16:57.445Z,35.97
2019-04-16T12:17:57.453Z,36.56
2019-04-16T12:18:57.538Z,35.55
2019-04-16T12:19:57.406Z,36.58
2019-04-16T12:20:57.472Z,36.78
2019-04-16T12:21:57.427Z,36.76
2019-04-16T12:22:57.375Z,37.07
2019-04-16T12:23:57.399Z,37.13
2019-04-16T12:24:57.452Z,36.43
2019-04-16T12:25:57.348Z,34.40
2019-04-16T12:26:57.358Z,35.51
2019-04-16T12:27:57.327Z,35.41
2019-04-16T12:28:57.339Z,35.90
2019-04-16T12:29:57.301Z,35.80
2019-04-16T12:30:57.304Z,36.39
2019-04-16T12:31:57.331Z,34.67
2019-04-16T12:32:57.257Z,33.67
2019-04-16T12:33:57.354Z,35.50
2019-04-16T12:34:57.249Z,35.41
2019-04-16T12:35:57.356Z,35.21
2019-04-16T12:36:57.306Z,35.80
2019-04-16T12:37:57.282Z,34.47
2019-04-16T12:38:57.230Z,35.60
2019-04-16T12:39:57.177Z,35.60
2019-04-16T12:40:57.197Z,35.08
2019-04-16T12:42:00.017Z,34.79
2019-04-16T12:42:57.145Z,35.09
2019-04-16T12:43:57.189Z,35.28
2019-04-16T12:44:57.178Z,36.19
2019-04-16T12:45:57.133Z,34.38
2019-04-16T12:46:57.129Z,35.21
2019-04-16T12:47:58.972Z,35.82
2019-04-16T12:48:57.128Z,35.51
2019-04-16T12:49:57.108Z,35.51
2019-04-16T12:50:57.082Z,35.51
2019-04-16T12:51:57.055Z,35.60